sensor_id;sensor_type;location;lat;lon;timestamp;pressure;altitude;pressure_sealevel;temperature;humidity
40612;BME280;26317;44.894;20.286;2023-08-24T00:02:25;100651.06;;;28.75;65.21
40612;BME280;26317;44.894;20.286;2023-08-24T00:05:00;100656.19;;;28.73;65.05
40612;BME280;26317;44.894;20.286;2023-08-24T00:07:35;100650.22;;;28.67;65.60
40612;BME280;26317;44.894;20.286;2023-08-24T00:10:09;100664.41;;;28.66;65.21
40612;BME280;26317;44.894;20.286;2023-08-24T00:13:03;100668.34;;;28.61;65.77
40612;BME280;26317;44.894;20.286;2023-08-24T00:15:37;100671.91;;;28.62;65.91
40612;BME280;26317;44.894;20.286;2023-08-24T00:18:19;100665.16;;;28.56;66.26
40612;BME280;26317;44.894;20.286;2023-08-24T00:20:55;100678.16;;;28.52;67.26
40612;BME280;26317;44.894;20.286;2023-08-24T00:23:30;100678.56;;;28.47;66.96
40612;BME280;26317;44.894;20.286;2023-08-24T00:26:08;100674.94;;;28.35;67.08
40612;BME280;26317;44.894;20.286;2023-08-24T00:28:45;100680.41;;;28.21;67.22
40612;BME280;26317;44.894;20.286;2023-08-24T00:31:33;100662.09;;;27.96;67.99
40612;BME280;26317;44.894;20.286;2023-08-24T00:34:29;100675.47;;;27.90;69.12
40612;BME280;26317;44.894;20.286;2023-08-24T00:37:03;100670.69;;;27.80;69.67
40612;BME280;26317;44.894;20.286;2023-08-24T00:39:40;100678.09;;;27.72;70.54
40612;BME280;26317;44.894;20.286;2023-08-24T00:42:21;100673.31;;;27.62;70.79
40612;BME280;26317;44.894;20.286;2023-08-24T00:45:02;100676.78;;;27.56;70.83
40612;BME280;26317;44.894;20.286;2023-08-24T00:47:34;100673.22;;;27.52;70.50
40612;BME280;26317;44.894;20.286;2023-08-24T00:50:15;100664.91;;;27.48;70.95
40612;BME280;26317;44.894;20.286;2023-08-24T00:52:50;100657.75;;;27.40;71.29
40612;BME280;26317;44.894;20.286;2023-08-24T00:55:27;100663.66;;;27.38;71.36
40612;BME280;26317;44.894;20.286;2023-08-24T00:58:21;100671.50;;;27.40;71.64
40612;BME280;26317;44.894;20.286;2023-08-24T01:00:58;100669.50;;;27.33;72.37
40612;BME280;26317;44.894;20.286;2023-08-24T01:03:51;100668.69;;;27.29;71.77
40612;BME280;26317;44.894;20.286;2023-08-24T01:06:46;100670.63;;;27.29;71.81
40612;BME280;26317;44.894;20.286;2023-08-24T01:09:35;100674.19;;;27.29;71.57
40612;BME280;26317;44.894;20.286;2023-08-24T01:12:17;100668.66;;;27.26;71.94
40612;BME280;26317;44.894;20.286;2023-08-24T01:15:01;100672.16;;;27.23;71.95
40612;BME280;26317;44.894;20.286;2023-08-24T01:17:43;100661.03;;;27.12;72.40
40612;BME280;26317;44.894;20.286;2023-08-24T01:20:19;100671.28;;;27.15;71.96
40612;BME280;26317;44.894;20.286;2023-08-24T01:23:09;100663.00;;;27.12;71.78
40612;BME280;26317;44.894;20.286;2023-08-24T01:25:55;100651.47;;;26.99;71.50
40612;BME280;26317;44.894;20.286;2023-08-24T01:28:48;100656.22;;;27.02;71.47
40612;BME280;26317;44.894;20.286;2023-08-24T01:31:25;100652.97;;;26.93;71.50
40612;BME280;26317;44.894;20.286;2023-08-24T01:33:57;100662.44;;;26.92;71.87
40612;BME280;26317;44.894;20.286;2023-08-24T01:36:45;100652.81;;;26.79;72.19
40612;BME280;26317;44.894;20.286;2023-08-24T01:39:31;100664.66;;;26.83;72.50
40612;BME280;26317;44.894;20.286;2023-08-24T01:42:17;100664.97;;;26.78;72.56
40612;BME280;26317;44.894;20.286;2023-08-24T01:45:04;100661.34;;;26.67;73.28
40612;BME280;26317;44.894;20.286;2023-08-24T01:47:41;100664.50;;;26.69;72.97
40612;BME280;26317;44.894;20.286;2023-08-24T01:50:25;100661.34;;;26.67;73.14
40612;BME280;26317;44.894;20.286;2023-08-24T01:53:01;100653.81;;;26.64;73.12
40612;BME280;26317;44.894;20.286;2023-08-24T01:55:45;100649.78;;;26.54;73.27
40612;BME280;26317;44.894;20.286;2023-08-24T01:58:22;100642.25;;;26.51;73.25
40612;BME280;26317;44.894;20.286;2023-08-24T02:01:11;100662.47;;;26.62;72.91
40612;BME280;26317;44.894;20.286;2023-08-24T02:03:45;100666.00;;;26.63;72.93
40612;BME280;26317;44.894;20.286;2023-08-24T02:06:25;100661.28;;;26.63;72.77
40612;BME280;26317;44.894;20.286;2023-08-24T02:09:00;100660.50;;;26.63;72.80
40612;BME280;26317;44.894;20.286;2023-08-24T02:11:36;100662.41;;;26.59;72.91
40612;BME280;26317;44.894;20.286;2023-08-24T02:14:17;100657.28;;;26.57;72.80
40612;BME280;26317;44.894;20.286;2023-08-24T02:16:58;100659.25;;;26.57;73.19
40612;BME280;26317;44.894;20.286;2023-08-24T02:19:37;100667.94;;;26.59;72.72
40612;BME280;26317;44.894;20.286;2023-08-24T02:22:12;100665.81;;;26.48;74.27
40612;BME280;26317;44.894;20.286;2023-08-24T02:24:44;100653.22;;;26.47;74.19
40612;BME280;26317;44.894;20.286;2023-08-24T02:27:16;100653.22;;;26.47;73.90
40612;BME280;26317;44.894;20.286;2023-08-24T02:29:52;100671.31;;;26.48;74.91
40612;BME280;26317;44.894;20.286;2023-08-24T02:32:30;100666.97;;;26.47;74.50
40612;BME280;26317;44.894;20.286;2023-08-24T02:35:16;100665.00;;;26.44;74.39
40612;BME280;26317;44.894;20.286;2023-08-24T02:38:02;100678.00;;;26.47;74.22
40612;BME280;26317;44.894;20.286;2023-08-24T02:40:41;100670.94;;;26.46;73.78
40612;BME280;26317;44.894;20.286;2023-08-24T02:43:23;100669.25;;;26.38;74.25
40612;BME280;26317;44.894;20.286;2023-08-24T02:46:01;100653.75;;;26.27;74.53
40612;BME280;26317;44.894;20.286;2023-08-24T02:48:43;100665.59;;;26.31;74.57
40612;BME280;26317;44.894;20.286;2023-08-24T02:51:21;100671.84;;;26.28;75.38
40612;BME280;26317;44.894;20.286;2023-08-24T02:54:12;100672.56;;;26.21;74.86
40612;BME280;26317;44.894;20.286;2023-08-24T02:56:51;100683.94;;;26.20;75.50
40612;BME280;26317;44.894;20.286;2023-08-24T02:59:26;100681.84;;;26.13;75.77
40612;BME280;26317;44.894;20.286;2023-08-24T03:02:02;100676.66;;;26.08;76.19
40612;BME280;26317;44.894;20.286;2023-08-24T03:04:39;100679.41;;;26.08;76.60
40612;BME280;26317;44.894;20.286;2023-08-24T03:07:20;100680.91;;;26.02;76.70
40612;BME280;26317;44.894;20.286;2023-08-24T03:09:53;100679.66;;;25.96;77.12
40612;BME280;26317;44.894;20.286;2023-08-24T03:12:27;100688.59;;;25.93;77.54
40612;BME280;26317;44.894;20.286;2023-08-24T03:15:11;100685.34;;;25.84;78.09
40612;BME280;26317;44.894;20.286;2023-08-24T03:17:44;100687.66;;;25.82;77.69
40612;BME280;26317;44.894;20.286;2023-08-24T03:20:21;100683.31;;;25.81;78.60
40612;BME280;26317;44.894;20.286;2023-08-24T03:23:02;100695.50;;;25.80;78.29
40612;BME280;26317;44.894;20.286;2023-08-24T03:25:41;100687.19;;;25.76;78.54
40612;BME280;26317;44.894;20.286;2023-08-24T03:28:20;100703.75;;;25.80;79.13
40612;BME280;26317;44.894;20.286;2023-08-24T03:31:00;100695.28;;;25.66;79.03
40612;BME280;26317;44.894;20.286;2023-08-24T03:33:39;100711.91;;;25.76;78.58
40612;BME280;26317;44.894;20.286;2023-08-24T03:36:22;100697.28;;;25.69;79.22
40612;BME280;26317;44.894;20.286;2023-08-24T03:38:56;100715.91;;;25.79;78.80
40612;BME280;26317;44.894;20.286;2023-08-24T03:41:39;100711.16;;;25.76;79.24
40612;BME280;26317;44.894;20.286;2023-08-24T03:44:19;100710.28;;;25.72;79.39
40612;BME280;26317;44.894;20.286;2023-08-24T03:46:56;100707.13;;;25.70;79.46
40612;BME280;26317;44.894;20.286;2023-08-24T03:49:35;100699.13;;;25.61;79.14
40612;BME280;26317;44.894;20.286;2023-08-24T03:52:19;100721.94;;;25.65;79.95
40612;BME280;26317;44.894;20.286;2023-08-24T03:54:57;100724.34;;;25.67;80.22
40612;BME280;26317;44.894;20.286;2023-08-24T03:57:28;100729.41;;;25.64;80.64
40612;BME280;26317;44.894;20.286;2023-08-24T03:59:59;100730.88;;;25.58;80.88
40612;BME280;26317;44.894;20.286;2023-08-24T04:02:53;100732.44;;;25.59;80.30
40612;BME280;26317;44.894;20.286;2023-08-24T04:05:33;100709.47;;;25.48;80.45
40612;BME280;26317;44.894;20.286;2023-08-24T04:08:16;100730.13;;;25.61;80.46
40612;BME280;26317;44.894;20.286;2023-08-24T04:10:51;100727.38;;;25.61;80.91
40612;BME280;26317;44.894;20.286;2023-08-24T04:13:27;100731.25;;;25.57;81.45
40612;BME280;26317;44.894;20.286;2023-08-24T04:15:58;100730.44;;;25.56;81.54
40612;BME280;26317;44.894;20.286;2023-08-24T04:18:44;100730.72;;;25.51;82.62
40612;BME280;26317;44.894;20.286;2023-08-24T04:21:34;100740.53;;;25.52;82.95
40612;BME280;26317;44.894;20.286;2023-08-24T04:24:18;100738.16;;;25.51;83.03
40612;BME280;26317;44.894;20.286;2023-08-24T04:27:06;100748.47;;;25.54;82.60
40612;BME280;26317;44.894;20.286;2023-08-24T04:29:47;100754.63;;;25.51;83.64
40612;BME280;26317;44.894;20.286;2023-08-24T04:32:24;100744.03;;;25.49;83.48
40612;BME280;26317;44.894;20.286;2023-08-24T04:34:57;100753.88;;;25.50;83.45
40612;BME280;26317;44.894;20.286;2023-08-24T04:37:37;100746.41;;;25.51;83.55
40612;BME280;26317;44.894;20.286;2023-08-24T04:40:14;100750.41;;;25.53;83.56
40612;BME280;26317;44.894;20.286;2023-08-24T04:42:49;100754.00;;;25.57;83.44
40612;BME280;26317;44.894;20.286;2023-08-24T04:45:22;100752.38;;;25.53;83.84
40612;BME280;26317;44.894;20.286;2023-08-24T04:47:56;100756.69;;;25.54;84.00
40612;BME280;26317;44.894;20.286;2023-08-24T04:50:30;100749.66;;;25.56;83.72
40612;BME280;26317;44.894;20.286;2023-08-24T04:53:24;100757.03;;;25.52;84.59
40612;BME280;26317;44.894;20.286;2023-08-24T04:56:05;100740.13;;;25.50;85.16
40612;BME280;26317;44.894;20.286;2023-08-24T04:58:53;100746.88;;;25.53;85.70
40612;BME280;26317;44.894;20.286;2023-08-24T05:01:34;100754.38;;;25.56;86.14
40612;BME280;26317;44.894;20.286;2023-08-24T05:04:08;100751.22;;;25.54;86.67
40612;BME280;26317;44.894;20.286;2023-08-24T05:06:45;100765.91;;;25.65;86.79
40612;BME280;26317;44.894;20.286;2023-08-24T05:09:23;100762.75;;;25.63;87.49
40612;BME280;26317;44.894;20.286;2023-08-24T05:12:17;100767.63;;;25.73;87.53
40612;BME280;26317;44.894;20.286;2023-08-24T05:14:53;100767.25;;;25.75;87.67
40612;BME280;26317;44.894;20.286;2023-08-24T05:17:32;100763.78;;;25.78;88.17
40612;BME280;26317;44.894;20.286;2023-08-24T05:20:11;100770.13;;;25.82;88.46
40612;BME280;26317;44.894;20.286;2023-08-24T05:25:36;100774.88;;;25.85;88.49
40612;BME280;26317;44.894;20.286;2023-08-24T05:28:18;100781.91;;;25.82;89.09
40612;BME280;26317;44.894;20.286;2023-08-24T05:30:57;100781.97;;;25.86;89.39
40612;BME280;26317;44.894;20.286;2023-08-24T05:33:33;100766.97;;;25.80;89.83
40612;BME280;26317;44.894;20.286;2023-08-24T05:36:14;100769.38;;;25.85;89.83
40612;BME280;26317;44.894;20.286;2023-08-24T05:38:52;100778.06;;;25.87;89.22
40612;BME280;26317;44.894;20.286;2023-08-24T05:41:31;100783.97;;;25.89;89.53
40612;BME280;26317;44.894;20.286;2023-08-24T05:44:08;100778.97;;;25.94;90.12
40612;BME280;26317;44.894;20.286;2023-08-24T05:46:41;100786.16;;;26.02;89.28
40612;BME280;26317;44.894;20.286;2023-08-24T05:49:16;100788.91;;;26.02;89.14
40612;BME280;26317;44.894;20.286;2023-08-24T05:51:51;100768.16;;;26.05;88.89
40612;BME280;26317;44.894;20.286;2023-08-24T05:54:21;100776.97;;;26.18;88.56
40612;BME280;26317;44.894;20.286;2023-08-24T05:56:53;100781.25;;;26.15;87.78
40612;BME280;26317;44.894;20.286;2023-08-24T05:59:43;100786.66;;;26.08;88.30
40612;BME280;26317;44.894;20.286;2023-08-24T06:02:25;100787.59;;;26.19;87.41
40612;BME280;26317;44.894;20.286;2023-08-24T06:04:59;100779.16;;;26.31;87.93
40612;BME280;26317;44.894;20.286;2023-08-24T06:07:44;100769.00;;;26.35;86.95
40612;BME280;26317;44.894;20.286;2023-08-24T06:10:23;100763.94;;;26.37;86.68
40612;BME280;26317;44.894;20.286;2023-08-24T06:13:07;100779.06;;;26.50;86.07
40612;BME280;26317;44.894;20.286;2023-08-24T06:16:05;100778.84;;;26.63;86.36
40612;BME280;26317;44.894;20.286;2023-08-24T06:19:02;100791.19;;;26.76;84.76
40612;BME280;26317;44.894;20.286;2023-08-24T06:21:43;100788.06;;;26.77;84.34
40612;BME280;26317;44.894;20.286;2023-08-24T06:24:30;100786.94;;;26.82;84.48
40612;BME280;26317;44.894;20.286;2023-08-24T06:27:08;100804.50;;;27.00;84.40
40612;BME280;26317;44.894;20.286;2023-08-24T06:29:51;100802.91;;;26.99;82.90
40612;BME280;26317;44.894;20.286;2023-08-24T06:32:48;100791.44;;;26.93;83.15
40612;BME280;26317;44.894;20.286;2023-08-24T06:35:26;100794.66;;;26.99;83.69
40612;BME280;26317;44.894;20.286;2023-08-24T06:38:20;100809.81;;;27.16;82.83
40612;BME280;26317;44.894;20.286;2023-08-24T06:40:54;100797.91;;;27.08;82.60
40612;BME280;26317;44.894;20.286;2023-08-24T06:43:34;100805.84;;;27.13;82.89
40612;BME280;26317;44.894;20.286;2023-08-24T06:46:17;100804.66;;;27.14;82.36
40612;BME280;26317;44.894;20.286;2023-08-24T06:49:08;100807.59;;;27.28;81.86
40612;BME280;26317;44.894;20.286;2023-08-24T06:51:54;100806.97;;;27.45;81.40
40612;BME280;26317;44.894;20.286;2023-08-24T06:54:50;100813.41;;;27.57;79.70
40612;BME280;26317;44.894;20.286;2023-08-24T06:57:28;100809.06;;;27.56;80.02
40612;BME280;26317;44.894;20.286;2023-08-24T07:00:14;100803.19;;;27.57;81.14
40612;BME280;26317;44.894;20.286;2023-08-24T07:03:04;100811.81;;;27.56;80.56
40612;BME280;26317;44.894;20.286;2023-08-24T07:05:50;100806.28;;;27.52;80.53
40612;BME280;26317;44.894;20.286;2023-08-24T07:08:29;100818.66;;;27.69;80.48
40612;BME280;26317;44.894;20.286;2023-08-24T07:11:07;100813.97;;;27.73;80.56
40612;BME280;26317;44.894;20.286;2023-08-24T07:14:12;100802.28;;;27.86;80.26
40612;BME280;26317;44.894;20.286;2023-08-24T07:16:47;100814.56;;;27.96;77.62
40612;BME280;26317;44.894;20.286;2023-08-24T07:19:30;100807.13;;;28.00;77.91
40612;BME280;26317;44.894;20.286;2023-08-24T07:22:19;100808.38;;;28.10;77.72
40612;BME280;26317;44.894;20.286;2023-08-24T07:24:57;100817.13;;;28.19;76.37
40612;BME280;26317;44.894;20.286;2023-08-24T07:27:36;100807.81;;;28.34;75.91
40612;BME280;26317;44.894;20.286;2023-08-24T07:30:17;100806.69;;;28.46;75.55
40612;BME280;26317;44.894;20.286;2023-08-24T07:33:05;100816.59;;;28.54;75.46
40612;BME280;26317;44.894;20.286;2023-08-24T07:35:46;100808.78;;;28.66;73.69
40612;BME280;26317;44.894;20.286;2023-08-24T07:38:35;100819.03;;;28.66;71.99
40612;BME280;26317;44.894;20.286;2023-08-24T07:41:05;100812.41;;;28.77;72.52
40612;BME280;26317;44.894;20.286;2023-08-24T07:43:54;100808.03;;;28.73;72.45
40612;BME280;26317;44.894;20.286;2023-08-24T07:46:29;100817.56;;;28.83;72.62
40612;BME280;26317;44.894;20.286;2023-08-24T07:49:03;100815.97;;;28.85;72.68
40612;BME280;26317;44.894;20.286;2023-08-24T07:51:41;100828.28;;;28.98;73.34
40612;BME280;26317;44.894;20.286;2023-08-24T07:54:29;100815.66;;;28.97;70.27
40612;BME280;26317;44.894;20.286;2023-08-24T07:57:04;100827.91;;;29.03;70.06
40612;BME280;26317;44.894;20.286;2023-08-24T07:59:42;100814.53;;;29.09;69.80
40612;BME280;26317;44.894;20.286;2023-08-24T08:02:15;100817.72;;;29.18;70.35
40612;BME280;26317;44.894;20.286;2023-08-24T08:04:46;100800.72;;;29.12;69.59
40612;BME280;26317;44.894;20.286;2023-08-24T08:07:35;100818.53;;;29.25;68.40
40612;BME280;26317;44.894;20.286;2023-08-24T08:10:12;100818.56;;;29.36;68.15
40612;BME280;26317;44.894;20.286;2023-08-24T08:12:51;100819.41;;;29.47;67.63
40612;BME280;26317;44.894;20.286;2023-08-24T08:15:27;100819.41;;;29.47;66.51
40612;BME280;26317;44.894;20.286;2023-08-24T08:18:13;100818.63;;;29.61;66.96
40612;BME280;26317;44.894;20.286;2023-08-24T08:20:53;100820.19;;;29.69;66.53
40612;BME280;26317;44.894;20.286;2023-08-24T08:23:33;100814.34;;;29.88;66.27
40612;BME280;26317;44.894;20.286;2023-08-24T08:26:22;100806.00;;;29.85;66.12
40612;BME280;26317;44.894;20.286;2023-08-24T08:29:07;100808.00;;;30.05;65.69
40612;BME280;26317;44.894;20.286;2023-08-24T08:31:40;100808.00;;;30.12;64.56
40612;BME280;26317;44.894;20.286;2023-08-24T08:34:23;100814.31;;;30.17;64.48
40612;BME280;26317;44.894;20.286;2023-08-24T08:36:56;100804.41;;;30.23;64.89
40612;BME280;26317;44.894;20.286;2023-08-24T08:39:38;100792.97;;;30.24;64.77
40612;BME280;26317;44.894;20.286;2023-08-24T08:42:28;100800.88;;;30.26;59.85
40612;BME280;26317;44.894;20.286;2023-08-24T08:45:06;100798.09;;;30.33;61.61
40612;BME280;26317;44.894;20.286;2023-08-24T08:48:02;100796.50;;;30.42;61.85
40612;BME280;26317;44.894;20.286;2023-08-24T08:50:42;100793.31;;;30.54;61.09
40612;BME280;26317;44.894;20.286;2023-08-24T08:53:15;100789.31;;;30.66;62.02
40612;BME280;26317;44.894;20.286;2023-08-24T08:55:54;100794.81;;;30.80;60.54
40612;BME280;26317;44.894;20.286;2023-08-24T08:58:41;100775.81;;;30.82;61.01
40612;BME280;26317;44.894;20.286;2023-08-24T09:01:24;100789.22;;;31.01;55.58
40612;BME280;26317;44.894;20.286;2023-08-24T09:04:00;100786.81;;;31.03;56.78
40612;BME280;26317;44.894;20.286;2023-08-24T09:06:40;100786.00;;;31.07;53.17
40612;BME280;26317;44.894;20.286;2023-08-24T09:09:20;100773.28;;;31.16;54.26
40612;BME280;26317;44.894;20.286;2023-08-24T09:12:12;100788.34;;;31.15;55.05
40612;BME280;26317;44.894;20.286;2023-08-24T09:14:52;100775.69;;;31.11;55.34
40612;BME280;26317;44.894;20.286;2023-08-24T09:17:28;100780.41;;;31.21;56.05
40612;BME280;26317;44.894;20.286;2023-08-24T09:20:28;100783.88;;;31.32;54.28
40612;BME280;26317;44.894;20.286;2023-08-24T09:23:28;100781.47;;;31.41;53.87
40612;BME280;26317;44.894;20.286;2023-08-24T09:26:02;100787.75;;;31.45;52.76
40612;BME280;26317;44.894;20.286;2023-08-24T09:28:37;100782.59;;;31.54;51.82
40612;BME280;26317;44.894;20.286;2023-08-24T09:31:19;100782.88;;;31.67;53.05
40612;BME280;26317;44.894;20.286;2023-08-24T09:34:04;100786.38;;;31.74;52.98
40612;BME280;26317;44.894;20.286;2023-08-24T09:36:45;100781.13;;;31.87;53.24
40612;BME280;26317;44.894;20.286;2023-08-24T09:39:23;100777.53;;;31.93;52.44
40612;BME280;26317;44.894;20.286;2023-08-24T09:42:03;100776.69;;;31.97;53.11
40612;BME280;26317;44.894;20.286;2023-08-24T09:44:46;100777.38;;;32.11;54.24
40612;BME280;26317;44.894;20.286;2023-08-24T09:47:28;100768.63;;;32.13;52.10
40612;BME280;26317;44.894;20.286;2023-08-24T09:50:07;100773.31;;;32.23;51.56
40612;BME280;26317;44.894;20.286;2023-08-24T09:52:46;100773.31;;;32.23;49.31
40612;BME280;26317;44.894;20.286;2023-08-24T09:55:35;100778.03;;;32.26;49.85
40612;BME280;26317;44.894;20.286;2023-08-24T09:58:09;100780.41;;;32.24;49.25
40612;BME280;26317;44.894;20.286;2023-08-24T10:00:49;100771.19;;;32.34;49.44
40612;BME280;26317;44.894;20.286;2023-08-24T10:03:51;100768.81;;;32.32;50.57
40612;BME280;26317;44.894;20.286;2023-08-24T10:06:35;100766.09;;;32.29;50.65
40612;BME280;26317;44.894;20.286;2023-08-24T10:09:38;100756.53;;;32.33;51.29
40612;BME280;26317;44.894;20.286;2023-08-24T10:12:15;100762.44;;;32.39;48.35
40612;BME280;26317;44.894;20.286;2023-08-24T10:14:59;100753.22;;;32.46;50.54
40612;BME280;26317;44.894;20.286;2023-08-24T10:17:46;100760.94;;;32.65;49.77
40612;BME280;26317;44.894;20.286;2023-08-24T10:20:45;100753.81;;;32.64;47.67
40612;BME280;26317;44.894;20.286;2023-08-24T10:23:20;100750.91;;;32.74;46.69
40612;BME280;26317;44.894;20.286;2023-08-24T10:25:55;100746.13;;;32.75;46.25
40612;BME280;26317;44.894;20.286;2023-08-24T10:28:32;100747.28;;;32.77;47.35
40612;BME280;26317;44.894;20.286;2023-08-24T10:31:04;100749.69;;;32.75;48.10
40612;BME280;26317;44.894;20.286;2023-08-24T10:33:40;100749.38;;;32.70;48.61
40612;BME280;26317;44.894;20.286;2023-08-24T10:36:30;100754.41;;;32.78;45.94
40612;BME280;26317;44.894;20.286;2023-08-24T10:39:08;100744.16;;;32.75;45.98
40612;BME280;26317;44.894;20.286;2023-08-24T10:44:46;100740.13;;;32.80;47.08
40612;BME280;26317;44.894;20.286;2023-08-24T10:47:28;100736.00;;;32.92;45.66
40612;BME280;26317;44.894;20.286;2023-08-24T10:50:07;100723.22;;;32.94;43.81
40612;BME280;26317;44.894;20.286;2023-08-24T10:52:52;100724.28;;;33.04;43.88
40612;BME280;26317;44.894;20.286;2023-08-24T10:55:26;100732.34;;;33.25;40.58
40612;BME280;26317;44.894;20.286;2023-08-24T10:58:16;100729.47;;;33.32;38.60
40612;BME280;26317;44.894;20.286;2023-08-24T11:00:56;100726.53;;;33.43;40.38
40612;BME280;26317;44.894;20.286;2023-08-24T11:03:39;100722.81;;;33.49;42.07
40612;BME280;26317;44.894;20.286;2023-08-24T11:06:25;100727.91;;;33.54;41.59
40612;BME280;26317;44.894;20.286;2023-08-24T11:09:20;100718.91;;;33.47;41.51
40612;BME280;26317;44.894;20.286;2023-08-24T11:12:02;100717.50;;;33.58;43.82
40612;BME280;26317;44.894;20.286;2023-08-24T11:14:48;100711.03;;;33.68;45.82
40612;BME280;26317;44.894;20.286;2023-08-24T11:17:29;100711.69;;;33.76;44.88
40612;BME280;26317;44.894;20.286;2023-08-24T11:20:30;100698.19;;;33.74;45.65
40612;BME280;26317;44.894;20.286;2023-08-24T11:23:07;100700.47;;;33.80;45.35
40612;BME280;26317;44.894;20.286;2023-08-24T11:26:00;100712.09;;;33.74;44.17
40612;BME280;26317;44.894;20.286;2023-08-24T11:28:41;100699.91;;;33.68;43.79
40612;BME280;26317;44.894;20.286;2023-08-24T11:31:26;100692.28;;;33.72;44.44
40612;BME280;26317;44.894;20.286;2023-08-24T11:34:22;100691.28;;;33.83;42.92
40612;BME280;26317;44.894;20.286;2023-08-24T11:37:01;100692.09;;;34.03;41.95
40612;BME280;26317;44.894;20.286;2023-08-24T11:39:33;100704.88;;;34.00;40.49
40612;BME280;26317;44.894;20.286;2023-08-24T11:42:23;100698.31;;;34.10;39.80
40612;BME280;26317;44.894;20.286;2023-08-24T11:45:00;100698.53;;;34.19;40.37
40612;BME280;26317;44.894;20.286;2023-08-24T11:47:33;100687.78;;;34.22;40.66
40612;BME280;26317;44.894;20.286;2023-08-24T11:50:15;100693.13;;;34.32;37.52
40612;BME280;26317;44.894;20.286;2023-08-24T11:52:51;100688.22;;;34.40;36.61
40612;BME280;26317;44.894;20.286;2023-08-24T11:55:30;100665.78;;;34.47;36.59
40612;BME280;26317;44.894;20.286;2023-08-24T11:58:20;100666.81;;;34.53;35.91
40612;BME280;26317;44.894;20.286;2023-08-24T12:00:55;100670.38;;;34.53;35.54
40612;BME280;26317;44.894;20.286;2023-08-24T12:03:29;100663.19;;;34.56;35.74
40612;BME280;26317;44.894;20.286;2023-08-24T12:06:01;100653.91;;;34.43;34.67
40612;BME280;26317;44.894;20.286;2023-08-24T12:09:00;100659.09;;;34.60;34.81
40612;BME280;26317;44.894;20.286;2023-08-24T12:11:41;100649.56;;;34.78;34.70
40612;BME280;26317;44.894;20.286;2023-08-24T12:14:21;100643.66;;;34.92;36.01
40612;BME280;26317;44.894;20.286;2023-08-24T12:17:17;100643.94;;;34.81;36.42
40612;BME280;26317;44.894;20.286;2023-08-24T12:19:59;100646.63;;;34.85;36.79
40612;BME280;26317;44.894;20.286;2023-08-24T12:22:39;100643.84;;;34.85;35.37
40612;BME280;26317;44.894;20.286;2023-08-24T12:25:18;100640.00;;;34.95;34.65
40612;BME280;26317;44.894;20.286;2023-08-24T12:27:53;100625.72;;;34.93;34.62
40612;BME280;26317;44.894;20.286;2023-08-24T12:30:54;100632.88;;;35.10;34.87
40612;BME280;26317;44.894;20.286;2023-08-24T12:33:57;100624.25;;;35.04;35.24
40612;BME280;26317;44.894;20.286;2023-08-24T12:36:38;100622.53;;;35.11;36.50
40612;BME280;26317;44.894;20.286;2023-08-24T12:39:13;100595.75;;;35.13;36.27
40612;BME280;26317;44.894;20.286;2023-08-24T12:41:52;100611.09;;;35.37;36.72
40612;BME280;26317;44.894;20.286;2023-08-24T12:44:33;100617.09;;;35.52;34.71
40612;BME280;26317;44.894;20.286;2023-08-24T12:47:11;100613.00;;;35.40;34.99
40612;BME280;26317;44.894;20.286;2023-08-24T12:49:48;100604.84;;;35.17;35.89
40612;BME280;26317;44.894;20.286;2023-08-24T12:52:23;100596.22;;;35.28;36.16
40612;BME280;26317;44.894;20.286;2023-08-24T12:54:54;100597.84;;;35.25;35.64
40612;BME280;26317;44.894;20.286;2023-08-24T12:57:30;100592.00;;;35.03;35.26
40612;BME280;26317;44.894;20.286;2023-08-24T13:00:16;100587.63;;;34.86;35.99
40612;BME280;26317;44.894;20.286;2023-08-24T13:03:06;100600.91;;;34.98;35.65
40612;BME280;26317;44.894;20.286;2023-08-24T13:05:46;100602.53;;;35.12;34.95
40612;BME280;26317;44.894;20.286;2023-08-24T13:08:31;100599.22;;;35.33;34.95
40612;BME280;26317;44.894;20.286;2023-08-24T13:11:21;100572.91;;;35.34;34.73
40612;BME280;26317;44.894;20.286;2023-08-24T13:14:04;100600.44;;;35.65;35.32
40612;BME280;26317;44.894;20.286;2023-08-24T13:16:55;100592.84;;;35.65;34.15
40612;BME280;26317;44.894;20.286;2023-08-24T13:19:41;100604.59;;;35.73;33.94
40612;BME280;26317;44.894;20.286;2023-08-24T13:22:22;100591.09;;;35.84;34.15
40612;BME280;26317;44.894;20.286;2023-08-24T13:24:56;100605.00;;;36.00;33.29
40612;BME280;26317;44.894;20.286;2023-08-24T13:27:40;100588.09;;;35.91;30.77
40612;BME280;26317;44.894;20.286;2023-08-24T13:30:15;100592.31;;;36.12;31.43
40612;BME280;26317;44.894;20.286;2023-08-24T13:32:50;100581.13;;;36.12;31.28
40612;BME280;26317;44.894;20.286;2023-08-24T13:35:30;100591.56;;;36.36;32.12
40612;BME280;26317;44.894;20.286;2023-08-24T13:38:16;100585.47;;;36.67;31.68
40612;BME280;26317;44.894;20.286;2023-08-24T13:40:53;100584.56;;;36.70;30.29
40612;BME280;26317;44.894;20.286;2023-08-24T13:43:35;100591.72;;;36.83;30.26
40612;BME280;26317;44.894;20.286;2023-08-24T13:46:12;100596.97;;;36.94;30.83
40612;BME280;26317;44.894;20.286;2023-08-24T13:48:53;100592.91;;;36.95;29.74
40612;BME280;26317;44.894;20.286;2023-08-24T13:51:45;100579.41;;;36.94;29.34
40612;BME280;26317;44.894;20.286;2023-08-24T13:54:22;100592.34;;;37.13;29.90
40612;BME280;26317;44.894;20.286;2023-08-24T13:56:58;100592.22;;;37.16;29.19
40612;BME280;26317;44.894;20.286;2023-08-24T13:59:34;100595.41;;;36.93;29.68